sensor_id;sensor_type;location;lat;lon;timestamp;temperature;humidity
37456;DHT22;23316;50.718;7.328;2022-07-17T00:00:44;19.10;42.10
37456;DHT22;23316;50.718;7.328;2022-07-17T00:03:12;19.10;42.20
37456;DHT22;23316;50.718;7.328;2022-07-17T00:05:40;19.00;42.20
37456;DHT22;23316;50.718;7.328;2022-07-17T00:08:09;18.90;42.30
37456;DHT22;23316;50.718;7.328;2022-07-17T00:10:38;18.90;42.50
37456;DHT22;23316;50.718;7.328;2022-07-17T00:13:06;18.90;42.60
37456;DHT22;23316;50.718;7.328;2022-07-17T00:15:34;18.80;43.10
37456;DHT22;23316;50.718;7.328;2022-07-17T00:18:04;18.80;42.60
37456;DHT22;23316;50.718;7.328;2022-07-17T00:20:33;18.70;42.60
37456;DHT22;23316;50.718;7.328;2022-07-17T00:23:01;18.70;42.60
37456;DHT22;23316;50.718;7.328;2022-07-17T00:25:28;18.70;42.80
37456;DHT22;23316;50.718;7.328;2022-07-17T00:27:58;18.60;42.80
37456;DHT22;23316;50.718;7.328;2022-07-17T00:30:25;18.60;42.90
37456;DHT22;23316;50.718;7.328;2022-07-17T00:32:53;18.50;43.00
37456;DHT22;23316;50.718;7.328;2022-07-17T00:35:22;18.50;43.00
37456;DHT22;23316;50.718;7.328;2022-07-17T00:37:50;18.40;43.10
37456;DHT22;23316;50.718;7.328;2022-07-17T00:40:19;18.40;43.70
37456;DHT22;23316;50.718;7.328;2022-07-17T00:42:48;18.30;43.20
37456;DHT22;23316;50.718;7.328;2022-07-17T00:45:17;18.30;43.20
37456;DHT22;23316;50.718;7.328;2022-07-17T00:47:53;18.30;43.40
37456;DHT22;23316;50.718;7.328;2022-07-17T00:50:24;18.30;43.70
37456;DHT22;23316;50.718;7.328;2022-07-17T00:52:52;18.20;43.60
37456;DHT22;23316;50.718;7.328;2022-07-17T00:55:20;18.20;43.70
37456;DHT22;23316;50.718;7.328;2022-07-17T00:57:48;18.20;43.70
37456;DHT22;23316;50.718;7.328;2022-07-17T01:00:16;18.10;43.80
37456;DHT22;23316;50.718;7.328;2022-07-17T01:02:46;18.10;43.90
37456;DHT22;23316;50.718;7.328;2022-07-17T01:05:14;18.10;43.90
37456;DHT22;23316;50.718;7.328;2022-07-17T01:07:43;18.10;44.30
37456;DHT22;23316;50.718;7.328;2022-07-17T01:10:12;18.10;43.90
37456;DHT22;23316;50.718;7.328;2022-07-17T01:12:40;18.00;44.00
37456;DHT22;23316;50.718;7.328;2022-07-17T01:15:09;18.00;44.00
37456;DHT22;23316;50.718;7.328;2022-07-17T01:17:37;18.00;44.10
37456;DHT22;23316;50.718;7.328;2022-07-17T01:20:07;17.90;44.10
37456;DHT22;23316;50.718;7.328;2022-07-17T01:22:41;17.90;44.10
37456;DHT22;23316;50.718;7.328;2022-07-17T01:25:09;17.90;44.30
37456;DHT22;23316;50.718;7.328;2022-07-17T01:27:37;17.90;44.20
37456;DHT22;23316;50.718;7.328;2022-07-17T01:30:06;17.90;44.30
37456;DHT22;23316;50.718;7.328;2022-07-17T01:32:36;17.80;44.30
37456;DHT22;23316;50.718;7.328;2022-07-17T01:35:05;17.80;44.30
37456;DHT22;23316;50.718;7.328;2022-07-17T01:37:33;17.80;44.40
37456;DHT22;23316;50.718;7.328;2022-07-17T01:40:11;17.80;44.40
37456;DHT22;23316;50.718;7.328;2022-07-17T01:42:41;17.70;44.50
37456;DHT22;23316;50.718;7.328;2022-07-17T01:45:09;17.70;44.60
37456;DHT22;23316;50.718;7.328;2022-07-17T01:47:37;17.70;44.70
37456;DHT22;23316;50.718;7.328;2022-07-17T01:50:05;17.70;44.70
37456;DHT22;23316;50.718;7.328;2022-07-17T01:52:35;17.60;44.70
37456;DHT22;23316;50.718;7.328;2022-07-17T01:55:04;17.60;44.90
37456;DHT22;23316;50.718;7.328;2022-07-17T01:57:33;17.60;44.80
37456;DHT22;23316;50.718;7.328;2022-07-17T02:00:00;17.50;44.80
37456;DHT22;23316;50.718;7.328;2022-07-17T02:02:28;17.50;44.80
37456;DHT22;23316;50.718;7.328;2022-07-17T02:04:56;17.50;44.90
37456;DHT22;23316;50.718;7.328;2022-07-17T02:07:23;17.50;44.90
37456;DHT22;23316;50.718;7.328;2022-07-17T02:09:50;17.40;44.90
37456;DHT22;23316;50.718;7.328;2022-07-17T02:12:18;17.40;45.00
37456;DHT22;23316;50.718;7.328;2022-07-17T02:14:47;17.40;45.10
37456;DHT22;23316;50.718;7.328;2022-07-17T02:17:14;17.30;45.20
37456;DHT22;23316;50.718;7.328;2022-07-17T02:19:42;17.30;45.20
37456;DHT22;23316;50.718;7.328;2022-07-17T02:22:09;17.30;45.20
37456;DHT22;23316;50.718;7.328;2022-07-17T02:24:37;17.20;45.30
37456;DHT22;23316;50.718;7.328;2022-07-17T02:27:04;17.20;45.30
37456;DHT22;23316;50.718;7.328;2022-07-17T02:29:32;17.20;45.40
37456;DHT22;23316;50.718;7.328;2022-07-17T02:32:00;17.10;45.40
37456;DHT22;23316;50.718;7.328;2022-07-17T02:34:28;17.10;45.50
37456;DHT22;23316;50.718;7.328;2022-07-17T02:36:55;17.10;45.50
37456;DHT22;23316;50.718;7.328;2022-07-17T02:39:23;17.10;45.60
37456;DHT22;23316;50.718;7.328;2022-07-17T02:41:50;17.00;45.70
37456;DHT22;23316;50.718;7.328;2022-07-17T02:44:17;17.00;45.80
37456;DHT22;23316;50.718;7.328;2022-07-17T02:46:45;17.00;45.80
37456;DHT22;23316;50.718;7.328;2022-07-17T02:49:14;17.00;45.90
37456;DHT22;23316;50.718;7.328;2022-07-17T02:51:41;16.90;45.90
37456;DHT22;23316;50.718;7.328;2022-07-17T02:54:09;16.90;46.00
37456;DHT22;23316;50.718;7.328;2022-07-17T02:56:36;16.90;46.00
37456;DHT22;23316;50.718;7.328;2022-07-17T02:59:03;16.90;46.10
37456;DHT22;23316;50.718;7.328;2022-07-17T03:01:31;16.90;46.20
37456;DHT22;23316;50.718;7.328;2022-07-17T03:03:58;16.80;46.20
37456;DHT22;23316;50.718;7.328;2022-07-17T03:06:28;16.80;46.30
37456;DHT22;23316;50.718;7.328;2022-07-17T03:08:55;16.80;46.40
37456;DHT22;23316;50.718;7.328;2022-07-17T03:11:23;16.80;46.40
37456;DHT22;23316;50.718;7.328;2022-07-17T03:13:50;16.80;46.50
37456;DHT22;23316;50.718;7.328;2022-07-17T03:16:18;16.70;46.50
37456;DHT22;23316;50.718;7.328;2022-07-17T03:18:45;16.70;46.50
37456;DHT22;23316;50.718;7.328;2022-07-17T03:21:13;16.70;46.50
37456;DHT22;23316;50.718;7.328;2022-07-17T03:23:41;16.70;46.60
37456;DHT22;23316;50.718;7.328;2022-07-17T03:26:09;16.70;46.70
37456;DHT22;23316;50.718;7.328;2022-07-17T03:28:36;16.60;46.70
37456;DHT22;23316;50.718;7.328;2022-07-17T03:31:04;16.60;46.70
37456;DHT22;23316;50.718;7.328;2022-07-17T03:33:33;16.60;46.80
37456;DHT22;23316;50.718;7.328;2022-07-17T03:36:01;16.60;46.80
37456;DHT22;23316;50.718;7.328;2022-07-17T03:38:29;16.60;46.80
37456;DHT22;23316;50.718;7.328;2022-07-17T03:40:58;16.60;46.90
37456;DHT22;23316;50.718;7.328;2022-07-17T03:43:25;16.50;46.80
37456;DHT22;23316;50.718;7.328;2022-07-17T03:45:53;16.50;46.80
37456;DHT22;23316;50.718;7.328;2022-07-17T03:48:20;16.50;46.80
37456;DHT22;23316;50.718;7.328;2022-07-17T03:50:48;16.50;46.90
37456;DHT22;23316;50.718;7.328;2022-07-17T03:53:15;16.40;46.90
37456;DHT22;23316;50.718;7.328;2022-07-17T03:55:43;16.40;47.00
37456;DHT22;23316;50.718;7.328;2022-07-17T03:58:12;16.40;47.00
37456;DHT22;23316;50.718;7.328;2022-07-17T04:00:39;16.30;47.10
37456;DHT22;23316;50.718;7.328;2022-07-17T04:03:06;16.30;47.10
37456;DHT22;23316;50.718;7.328;2022-07-17T04:05:34;16.30;47.20
37456;DHT22;23316;50.718;7.328;2022-07-17T04:08:01;16.30;47.20
37456;DHT22;23316;50.718;7.328;2022-07-17T04:10:29;16.30;47.20
37456;DHT22;23316;50.718;7.328;2022-07-17T04:12:56;16.30;47.30
37456;DHT22;23316;50.718;7.328;2022-07-17T04:15:25;16.30;47.40
37456;DHT22;23316;50.718;7.328;2022-07-17T04:18:10;16.20;48.00
37456;DHT22;23316;50.718;7.328;2022-07-17T04:20:38;16.20;47.50
37456;DHT22;23316;50.718;7.328;2022-07-17T04:23:05;16.20;47.60
37456;DHT22;23316;50.718;7.328;2022-07-17T04:25:33;16.20;47.70
37456;DHT22;23316;50.718;7.328;2022-07-17T04:28:00;16.10;47.70
37456;DHT22;23316;50.718;7.328;2022-07-17T04:30:29;16.10;47.80
37456;DHT22;23316;50.718;7.328;2022-07-17T04:32:57;16.10;48.00
37456;DHT22;23316;50.718;7.328;2022-07-17T04:35:25;16.10;48.10
37456;DHT22;23316;50.718;7.328;2022-07-17T04:37:52;16.10;48.00
37456;DHT22;23316;50.718;7.328;2022-07-17T04:40:20;16.10;48.10
37456;DHT22;23316;50.718;7.328;2022-07-17T04:42:47;16.10;48.10
37456;DHT22;23316;50.718;7.328;2022-07-17T04:45:15;16.10;48.20
37456;DHT22;23316;50.718;7.328;2022-07-17T04:47:44;16.10;48.30
37456;DHT22;23316;50.718;7.328;2022-07-17T04:50:12;16.10;48.30
37456;DHT22;23316;50.718;7.328;2022-07-17T04:52:40;16.10;48.20
37456;DHT22;23316;50.718;7.328;2022-07-17T04:55:08;16.00;48.30
37456;DHT22;23316;50.718;7.328;2022-07-17T04:57:36;16.10;48.40
37456;DHT22;23316;50.718;7.328;2022-07-17T05:00:04;16.10;48.60
37456;DHT22;23316;50.718;7.328;2022-07-17T05:02:32;16.10;48.80
37456;DHT22;23316;50.718;7.328;2022-07-17T05:05:01;16.10;48.80
37456;DHT22;23316;50.718;7.328;2022-07-17T05:07:29;16.10;48.90
37456;DHT22;23316;50.718;7.328;2022-07-17T05:09:57;16.10;49.00
37456;DHT22;23316;50.718;7.328;2022-07-17T05:12:24;16.10;49.20
37456;DHT22;23316;50.718;7.328;2022-07-17T05:14:51;16.10;49.30
37456;DHT22;23316;50.718;7.328;2022-07-17T05:17:19;16.10;49.50
37456;DHT22;23316;50.718;7.328;2022-07-17T05:19:47;16.20;49.60
37456;DHT22;23316;50.718;7.328;2022-07-17T05:22:16;16.20;49.60
37456;DHT22;23316;50.718;7.328;2022-07-17T05:24:43;16.20;49.60
37456;DHT22;23316;50.718;7.328;2022-07-17T05:27:11;16.20;49.60
37456;DHT22;23316;50.718;7.328;2022-07-17T05:29:38;16.20;49.60
37456;DHT22;23316;50.718;7.328;2022-07-17T05:32:06;16.30;49.80
37456;DHT22;23316;50.718;7.328;2022-07-17T05:34:33;16.30;49.80
37456;DHT22;23316;50.718;7.328;2022-07-17T05:37:00;16.30;50.00
37456;DHT22;23316;50.718;7.328;2022-07-17T05:39:29;16.30;50.00
37456;DHT22;23316;50.718;7.328;2022-07-17T05:41:57;16.40;50.10
37456;DHT22;23316;50.718;7.328;2022-07-17T05:44:24;16.40;50.20
37456;DHT22;23316;50.718;7.328;2022-07-17T05:46:53;16.50;50.40
37456;DHT22;23316;50.718;7.328;2022-07-17T05:49:20;16.50;50.60
37456;DHT22;23316;50.718;7.328;2022-07-17T05:51:48;16.50;50.80
37456;DHT22;23316;50.718;7.328;2022-07-17T05:54:15;16.60;50.80
37456;DHT22;23316;50.718;7.328;2022-07-17T05:56:44;16.60;51.00
37456;DHT22;23316;50.718;7.328;2022-07-17T05:59:13;16.70;51.10
37456;DHT22;23316;50.718;7.328;2022-07-17T06:01:41;16.80;51.10
37456;DHT22;23316;50.718;7.328;2022-07-17T06:04:08;16.80;51.10
37456;DHT22;23316;50.718;7.328;2022-07-17T06:06:36;16.90;51.10
37456;DHT22;23316;50.718;7.328;2022-07-17T06:09:04;16.90;51.00
37456;DHT22;23316;50.718;7.328;2022-07-17T06:11:31;17.00;51.00
37456;DHT22;23316;50.718;7.328;2022-07-17T06:14:00;17.10;51.00
37456;DHT22;23316;50.718;7.328;2022-07-17T06:16:27;17.20;51.00
37456;DHT22;23316;50.718;7.328;2022-07-17T06:18:55;17.30;50.90
37456;DHT22;23316;50.718;7.328;2022-07-17T06:21:22;17.40;51.00
37456;DHT22;23316;50.718;7.328;2022-07-17T06:23:50;17.40;50.90
37456;DHT22;23316;50.718;7.328;2022-07-17T06:26:17;17.50;50.80
37456;DHT22;23316;50.718;7.328;2022-07-17T06:28:45;17.60;50.60
37456;DHT22;23316;50.718;7.328;2022-07-17T06:31:14;17.70;50.40
37456;DHT22;23316;50.718;7.328;2022-07-17T06:33:41;17.70;50.10
37456;DHT22;23316;50.718;7.328;2022-07-17T06:36:09;17.80;49.80
37456;DHT22;23316;50.718;7.328;2022-07-17T06:38:36;17.90;49.90
37456;DHT22;23316;50.718;7.328;2022-07-17T06:41:04;17.90;49.90
37456;DHT22;23316;50.718;7.328;2022-07-17T06:43:31;18.00;50.00
37456;DHT22;23316;50.718;7.328;2022-07-17T06:45:59;18.10;49.80
37456;DHT22;23316;50.718;7.328;2022-07-17T06:48:27;18.10;49.50
37456;DHT22;23316;50.718;7.328;2022-07-17T06:50:55;18.20;49.60
37456;DHT22;23316;50.718;7.328;2022-07-17T06:53:22;18.30;49.70
37456;DHT22;23316;50.718;7.328;2022-07-17T06:55:50;18.40;49.70
37456;DHT22;23316;50.718;7.328;2022-07-17T06:58:17;18.40;49.50
37456;DHT22;23316;50.718;7.328;2022-07-17T07:00:45;18.50;49.50
37456;DHT22;23316;50.718;7.328;2022-07-17T07:03:12;18.50;49.40
37456;DHT22;23316;50.718;7.328;2022-07-17T07:05:41;18.60;49.10
37456;DHT22;23316;50.718;7.328;2022-07-17T07:08:09;18.70;49.20
37456;DHT22;23316;50.718;7.328;2022-07-17T07:10:36;18.80;49.00
37456;DHT22;23316;50.718;7.328;2022-07-17T07:13:04;18.80;49.10
37456;DHT22;23316;50.718;7.328;2022-07-17T07:15:31;18.90;48.90
37456;DHT22;23316;50.718;7.328;2022-07-17T07:17:59;19.00;48.80
37456;DHT22;23316;50.718;7.328;2022-07-17T07:20:26;19.10;48.70
37456;DHT22;23316;50.718;7.328;2022-07-17T07:22:55;19.20;48.90
37456;DHT22;23316;50.718;7.328;2022-07-17T07:25:23;19.20;48.80
37456;DHT22;23316;50.718;7.328;2022-07-17T07:27:50;19.30;48.60
37456;DHT22;23316;50.718;7.328;2022-07-17T07:30:18;19.40;48.50
37456;DHT22;23316;50.718;7.328;2022-07-17T07:32:45;19.40;48.40
37456;DHT22;23316;50.718;7.328;2022-07-17T07:35:12;19.50;48.30
37456;DHT22;23316;50.718;7.328;2022-07-17T07:37:40;19.60;48.30
37456;DHT22;23316;50.718;7.328;2022-07-17T07:40:11;19.60;48.10
37456;DHT22;23316;50.718;7.328;2022-07-17T07:42:39;19.80;48.60
37456;DHT22;23316;50.718;7.328;2022-07-17T07:45:07;19.80;47.80
37456;DHT22;23316;50.718;7.328;2022-07-17T07:47:41;19.90;47.40
37456;DHT22;23316;50.718;7.328;2022-07-17T07:50:09;20.00;47.40
37456;DHT22;23316;50.718;7.328;2022-07-17T07:52:37;20.10;47.50
37456;DHT22;23316;50.718;7.328;2022-07-17T07:55:06;20.20;47.00
37456;DHT22;23316;50.718;7.328;2022-07-17T07:57:35;20.30;46.80
37456;DHT22;23316;50.718;7.328;2022-07-17T08:00:04;20.40;46.60
37456;DHT22;23316;50.718;7.328;2022-07-17T08:02:32;20.40;46.80
37456;DHT22;23316;50.718;7.328;2022-07-17T08:04:59;20.50;46.10
37456;DHT22;23316;50.718;7.328;2022-07-17T08:07:27;20.60;45.80
37456;DHT22;23316;50.718;7.328;2022-07-17T08:09:55;20.70;45.80
37456;DHT22;23316;50.718;7.328;2022-07-17T08:12:23;20.80;45.60
37456;DHT22;23316;50.718;7.328;2022-07-17T08:14:52;20.90;45.50
37456;DHT22;23316;50.718;7.328;2022-07-17T08:17:19;20.90;45.00
37456;DHT22;23316;50.718;7.328;2022-07-17T08:19:47;21.10;44.70
37456;DHT22;23316;50.718;7.328;2022-07-17T08:22:14;21.20;44.70
37456;DHT22;23316;50.718;7.328;2022-07-17T08:24:41;21.20;43.60
37456;DHT22;23316;50.718;7.328;2022-07-17T08:27:09;21.30;43.40
37456;DHT22;23316;50.718;7.328;2022-07-17T08:29:36;21.40;43.30
37456;DHT22;23316;50.718;7.328;2022-07-17T08:32:06;21.50;42.80
37456;DHT22;23316;50.718;7.328;2022-07-17T08:34:35;21.50;42.70
37456;DHT22;23316;50.718;7.328;2022-07-17T08:37:03;21.60;42.50
37456;DHT22;23316;50.718;7.328;2022-07-17T08:39:30;21.70;40.50
37456;DHT22;23316;50.718;7.328;2022-07-17T08:41:58;21.80;40.70
37456;DHT22;23316;50.718;7.328;2022-07-17T08:44:25;21.90;41.10
37456;DHT22;23316;50.718;7.328;2022-07-17T08:46:53;21.90;41.20
37456;DHT22;23316;50.718;7.328;2022-07-17T08:49:24;22.00;40.90
37456;DHT22;23316;50.718;7.328;2022-07-17T08:51:51;22.10;39.80
37456;DHT22;23316;50.718;7.328;2022-07-17T08:54:21;22.10;39.90
37456;DHT22;23316;50.718;7.328;2022-07-17T08:56:49;22.20;39.90
37456;DHT22;23316;50.718;7.328;2022-07-17T08:59:17;22.30;39.20
37456;DHT22;23316;50.718;7.328;2022-07-17T09:01:45;22.30;38.40
37456;DHT22;23316;50.718;7.328;2022-07-17T09:04:12;22.40;38.80
37456;DHT22;23316;50.718;7.328;2022-07-17T09:06:41;22.40;38.90
37456;DHT22;23316;50.718;7.328;2022-07-17T09:09:11;22.50;38.70
37456;DHT22;23316;50.718;7.328;2022-07-17T09:11:43;22.50;39.10
37456;DHT22;23316;50.718;7.328;2022-07-17T09:14:11;22.60;39.20
37456;DHT22;23316;50.718;7.328;2022-07-17T09:16:48;22.60;39.00
37456;DHT22;23316;50.718;7.328;2022-07-17T09:19:26;22.70;38.70
37456;DHT22;23316;50.718;7.328;2022-07-17T09:22:05;22.70;37.90
37456;DHT22;23316;50.718;7.328;2022-07-17T09:24:41;22.80;37.30
37456;DHT22;23316;50.718;7.328;2022-07-17T09:27:10;22.80;37.40
37456;DHT22;23316;50.718;7.328;2022-07-17T09:29:53;22.90;37.00
37456;DHT22;23316;50.718;7.328;2022-07-17T09:32:23;23.00;36.70
37456;DHT22;23316;50.718;7.328;2022-07-17T09:34:52;23.00;37.00
37456;DHT22;23316;50.718;7.328;2022-07-17T09:37:23;23.10;37.30
37456;DHT22;23316;50.718;7.328;2022-07-17T09:39:51;23.10;37.40
37456;DHT22;23316;50.718;7.328;2022-07-17T09:42:27;23.20;37.50
37456;DHT22;23316;50.718;7.328;2022-07-17T09:44:57;23.20;37.50
37456;DHT22;23316;50.718;7.328;2022-07-17T09:47:26;23.30;37.50
37456;DHT22;23316;50.718;7.328;2022-07-17T09:49:55;23.40;37.70
37456;DHT22;23316;50.718;7.328;2022-07-17T09:52:26;23.40;37.30
37456;DHT22;23316;50.718;7.328;2022-07-17T09:54:56;23.40;36.90
37456;DHT22;23316;50.718;7.328;2022-07-17T09:57:25;23.50;37.20
37456;DHT22;23316;50.718;7.328;2022-07-17T09:59:54;23.50;37.20
37456;DHT22;23316;50.718;7.328;2022-07-17T10:02:22;23.60;36.70
37456;DHT22;23316;50.718;7.328;2022-07-17T10:04:51;23.60;35.60
37456;DHT22;23316;50.718;7.328;2022-07-17T10:07:20;23.60;35.40
37456;DHT22;23316;50.718;7.328;2022-07-17T10:09:49;23.60;36.00
37456;DHT22;23316;50.718;7.328;2022-07-17T10:12:17;23.70;36.10
37456;DHT22;23316;50.718;7.328;2022-07-17T10:14:47;23.70;35.20
37456;DHT22;23316;50.718;7.328;2022-07-17T10:17:20;23.70;34.40
37456;DHT22;23316;50.718;7.328;2022-07-17T10:19:52;23.70;34.80
37456;DHT22;23316;50.718;7.328;2022-07-17T10:22:20;23.80;35.40
37456;DHT22;23316;50.718;7.328;2022-07-17T10:24:51;23.80;35.10
37456;DHT22;23316;50.718;7.328;2022-07-17T10:27:21;23.80;35.20
37456;DHT22;23316;50.718;7.328;2022-07-17T10:30:00;23.90;34.90
37456;DHT22;23316;50.718;7.328;2022-07-17T10:32:28;24.00;34.60
37456;DHT22;23316;50.718;7.328;2022-07-17T10:35:00;24.00;33.80
37456;DHT22;23316;50.718;7.328;2022-07-17T10:37:32;24.00;32.90
37456;DHT22;23316;50.718;7.328;2022-07-17T10:40:10;24.10;33.80
37456;DHT22;23316;50.718;7.328;2022-07-17T10:42:40;24.10;33.80
37456;DHT22;23316;50.718;7.328;2022-07-17T10:45:10;24.20;33.70
37456;DHT22;23316;50.718;7.328;2022-07-17T10:47:46;24.20;34.20
37456;DHT22;23316;50.718;7.328;2022-07-17T10:50:15;24.30;33.40
37456;DHT22;23316;50.718;7.328;2022-07-17T10:52:43;24.30;34.00
37456;DHT22;23316;50.718;7.328;2022-07-17T10:55:21;24.40;33.90
37456;DHT22;23316;50.718;7.328;2022-07-17T10:57:49;24.40;33.90
37456;DHT22;23316;50.718;7.328;2022-07-17T11:00:17;24.40;32.80
37456;DHT22;23316;50.718;7.328;2022-07-17T11:02:45;24.40;33.50
37456;DHT22;23316;50.718;7.328;2022-07-17T11:05:13;24.50;33.10
37456;DHT22;23316;50.718;7.328;2022-07-17T11:07:55;24.50;33.40
37456;DHT22;23316;50.718;7.328;2022-07-17T11:10:28;24.60;33.40
37456;DHT22;23316;50.718;7.328;2022-07-17T11:13:07;24.60;32.30
37456;DHT22;23316;50.718;7.328;2022-07-17T11:15:39;24.60;32.60
37456;DHT22;23316;50.718;7.328;2022-07-17T11:18:10;24.70;32.20
37456;DHT22;23316;50.718;7.328;2022-07-17T11:20:50;24.60;32.20
37456;DHT22;23316;50.718;7.328;2022-07-17T11:23:21;24.70;33.00
37456;DHT22;23316;50.718;7.328;2022-07-17T11:25:56;24.70;33.10
37456;DHT22;23316;50.718;7.328;2022-07-17T11:28:34;24.80;33.10
37456;DHT22;23316;50.718;7.328;2022-07-17T11:31:05;24.90;33.30
37456;DHT22;23316;50.718;7.328;2022-07-17T11:33:46;24.90;32.70
37456;DHT22;23316;50.718;7.328;2022-07-17T11:36:23;25.00;32.60
37456;DHT22;23316;50.718;7.328;2022-07-17T11:38:52;25.10;32.80
37456;DHT22;23316;50.718;7.328;2022-07-17T11:41:21;25.10;32.90
37456;DHT22;23316;50.718;7.328;2022-07-17T11:43:58;25.20;31.20
37456;DHT22;23316;50.718;7.328;2022-07-17T11:46:28;25.20;31.10
37456;DHT22;23316;50.718;7.328;2022-07-17T11:48:56;25.20;30.30
37456;DHT22;23316;50.718;7.328;2022-07-17T11:51:33;25.30;32.10
37456;DHT22;23316;50.718;7.328;2022-07-17T11:54:04;25.30;30.50
37456;DHT22;23316;50.718;7.328;2022-07-17T11:56:33;25.40;30.00
37456;DHT22;23316;50.718;7.328;2022-07-17T11:59:01;25.40;30.60
37456;DHT22;23316;50.718;7.328;2022-07-17T12:01:37;25.50;30.40
37456;DHT22;23316;50.718;7.328;2022-07-17T12:04:07;25.50;31.00
37456;DHT22;23316;50.718;7.328;2022-07-17T12:06:35;25.60;31.10
37456;DHT22;23316;50.718;7.328;2022-07-17T12:09:03;25.70;31.00
37456;DHT22;23316;50.718;7.328;2022-07-17T12:11:30;25.70;31.20
37456;DHT22;23316;50.718;7.328;2022-07-17T12:14:05;25.80;29.80
37456;DHT22;23316;50.718;7.328;2022-07-17T12:16:35;25.80;30.20
37456;DHT22;23316;50.718;7.328;2022-07-17T12:19:08;25.80;29.50
37456;DHT22;23316;50.718;7.328;2022-07-17T12:21:54;25.90;28.70
37456;DHT22;23316;50.718;7.328;2022-07-17T12:24:24;25.90;27.80
37456;DHT22;23316;50.718;7.328;2022-07-17T12:26:53;26.00;28.00
37456;DHT22;23316;50.718;7.328;2022-07-17T12:29:22;26.00;28.40
37456;DHT22;23316;50.718;7.328;2022-07-17T12:32:04;26.10;28.60
37456;DHT22;23316;50.718;7.328;2022-07-17T12:34:32;26.20;28.70
37456;DHT22;23316;50.718;7.328;2022-07-17T12:37:00;26.30;29.00
37456;DHT22;23316;50.718;7.328;2022-07-17T12:39:27;26.40;28.20
37456;DHT22;23316;50.718;7.328;2022-07-17T12:41:54;26.40;28.30
37456;DHT22;23316;50.718;7.328;2022-07-17T12:44:24;26.40;27.80
37456;DHT22;23316;50.718;7.328;2022-07-17T12:46:51;26.40;27.50
37456;DHT22;23316;50.718;7.328;2022-07-17T12:49:19;26.40;27.80
37456;DHT22;23316;50.718;7.328;2022-07-17T12:51:46;26.50;27.90
37456;DHT22;23316;50.718;7.328;2022-07-17T12:54:14;26.50;27.80
37456;DHT22;23316;50.718;7.328;2022-07-17T12:56:41;26.50;27.40
37456;DHT22;23316;50.718;7.328;2022-07-17T12:59:09;26.60;27.50
37456;DHT22;23316;50.718;7.328;2022-07-17T13:01:38;26.70;27.40
37456;DHT22;23316;50.718;7.328;2022-07-17T13:04:05;26.70;26.60
37456;DHT22;23316;50.718;7.328;2022-07-17T13:06:33;26.70;26.20
37456;DHT22;23316;50.718;7.328;2022-07-17T13:09:00;26.70;26.50
37456;DHT22;23316;50.718;7.328;2022-07-17T13:11:28;26.70;26.60
37456;DHT22;23316;50.718;7.328;2022-07-17T13:13:55;26.70;28.00
37456;DHT22;23316;50.718;7.328;2022-07-17T13:16:24;26.70;27.20
37456;DHT22;23316;50.718;7.328;2022-07-17T13:18:53;26.70;27.30
37456;DHT22;23316;50.718;7.328;2022-07-17T13:21:20;26.80;27.90
37456;DHT22;23316;50.718;7.328;2022-07-17T13:23:48;26.70;27.20
37456;DHT22;23316;50.718;7.328;2022-07-17T13:26:15;26.80;27.10
37456;DHT22;23316;50.718;7.328;2022-07-17T13:28:44;26.80;27.80
37456;DHT22;23316;50.718;7.328;2022-07-17T13:31:12;26.80;27.50
37456;DHT22;23316;50.718;7.328;2022-07-17T13:33:39;26.90;27.70
37456;DHT22;23316;50.718;7.328;2022-07-17T13:36:08;26.90;27.40
37456;DHT22;23316;50.718;7.328;2022-07-17T13:38:36;26.90;26.90
37456;DHT22;23316;50.718;7.328;2022-07-17T13:41:03;27.00;26.50
37456;DHT22;23316;50.718;7.328;2022-07-17T13:43:31;27.10;26.60
37456;DHT22;23316;50.718;7.328;2022-07-17T13:45:59;27.10;27.10
37456;DHT22;23316;50.718;7.328;2022-07-17T13:48:26;27.20;27.80
37456;DHT22;23316;50.718;7.328;2022-07-17T13:50:54;27.20;27.70
37456;DHT22;23316;50.718;7.328;2022-07-17T13:53:23;27.30;28.30
37456;DHT22;23316;50.718;7.328;2022-07-17T13:55:50;27.40;28.50
37456;DHT22;23316;50.718;7.328;2022-07-17T13:58:18;27.50;27.90
37456;DHT22;23316;50.718;7.328;2022-07-17T14:00:46;27.50;27.00
37456;DHT22;23316;50.718;7.328;2022-07-17T14:03:13;27.50;26.60
37456;DHT22;23316;50.718;7.328;2022-07-17T14:05:40;27.50;26.50
37456;DHT22;23316;50.718;7.328;2022-07-17T14:08:08;27.50;27.20
37456;DHT22;23316;50.718;7.328;2022-07-17T14:10:37;27.60;26.50
37456;DHT22;23316;50.718;7.328;2022-07-17T14:13:04;27.60;26.60
37456;DHT22;23316;50.718;7.328;2022-07-17T14:15:32;27.60;26.20
37456;DHT22;23316;50.718;7.328;2022-07-17T14:17:59;27.60;27.40
37456;DHT22;23316;50.718;7.328;2022-07-17T14:20:28;27.60;26.80
37456;DHT22;23316;50.718;7.328;2022-07-17T14:22:55;27.70;27.10
37456;DHT22;23316;50.718;7.328;2022-07-17T14:25:23;27.70;26.00
37456;DHT22;23316;50.718;7.328;2022-07-17T14:27:52;27.70;26.90
37456;DHT22;23316;50.718;7.328;2022-07-17T14:30:20;27.70;27.40
37456;DHT22;23316;50.718;7.328;2022-07-17T14:32:49;27.80;27.50
37456;DHT22;23316;50.718;7.328;2022-07-17T14:35:16;27.80;27.40
37456;DHT22;23316;50.718;7.328;2022-07-17T14:37:43;27.90;27.40
37456;DHT22;23316;50.718;7.328;2022-07-17T14:40:11;27.90;27.40
37456;DHT22;23316;50.718;7.328;2022-07-17T14:42:39;28.00;27.00
37456;DHT22;23316;50.718;7.328;2022-07-17T14:45:09;28.00;26.80
37456;DHT22;23316;50.718;7.328;2022-07-17T14:47:39;28.00;27.10
37456;DHT22;23316;50.718;7.328;2022-07-17T14:50:08;28.00;27.30
37456;DHT22;23316;50.718;7.328;2022-07-17T14:52:36;28.10;27.40
37456;DHT22;23316;50.718;7.328;2022-07-17T14:55:05;28.10;27.80
37456;DHT22;23316;50.718;7.328;2022-07-17T14:57:33;28.10;27.90
37456;DHT22;23316;50.718;7.328;2022-07-17T15:00:00;28.20;27.30
37456;DHT22;23316;50.718;7.328;2022-07-17T15:02:29;28.20;26.50
37456;DHT22;23316;50.718;7.328;2022-07-17T15:04:57;28.10;26.40
37456;DHT22;23316;50.718;7.328;2022-07-17T15:07:24;28.20;26.70
37456;DHT22;23316;50.718;7.328;2022-07-17T15:09:52;28.10;27.10
37456;DHT22;23316;50.718;7.328;2022-07-17T15:12:19;28.20;26.80
37456;DHT22;23316;50.718;7.328;2022-07-17T15:14:47;28.20;27.80
37456;DHT22;23316;50.718;7.328;2022-07-17T15:17:14;28.20;27.50
37456;DHT22;23316;50.718;7.328;2022-07-17T15:19:44;28.30;27.50
37456;DHT22;23316;50.718;7.328;2022-07-17T15:22:11;28.30;27.50
37456;DHT22;23316;50.718;7.328;2022-07-17T15:24:39;28.30;28.10
37456;DHT22;23316;50.718;7.328;2022-07-17T15:27:06;28.40;27.30
37456;DHT22;23316;50.718;7.328;2022-07-17T15:29:34;28.40;27.60
37456;DHT22;23316;50.718;7.328;2022-07-17T15:32:03;28.50;27.30
37456;DHT22;23316;50.718;7.328;2022-07-17T15:34:31;28.50;27.60
37456;DHT22;23316;50.718;7.328;2022-07-17T15:36:59;28.50;27.10
37456;DHT22;23316;50.718;7.328;2022-07-17T15:39:27;28.60;26.40